Search for airport 
image banner adimage banner adimage banner ad
image banner ad

53PN - S W Jack

Located in Indiana, United States

ICAO - 53PN, IATA -

Data provided by Airmate  

General information

Coordinates: N40°37'48" W79°6'49"
Elevation is 1360 feet MSL.
Magnetic variation is -08° East
View others Airports in Pennsylvania

Operational data

Special qualification required
Current time UTC:
Current local time:
METAR: KIDI 091235Z AUTO 17006KT 10SM BKN034 OVC042 06/03 A3008 RMK A01
View NOTAMs / SUP AIP / TFR affecting this airport [VIEW]
Communications frequencies: [VIEW]

Runways:

Airport contact information

Address: Indiana United States

Satellite view of 53PN